sensor_id;sensor_type;location;lat;lon;timestamp;P1;durP1;ratioP1;P2;durP2;ratioP2
62990;SDS011;49084;48.204;16.202;2022-12-20T00:00:42;64.05;;;21.42;;
62990;SDS011;49084;48.204;16.202;2022-12-20T00:03:08;61.80;;;22.40;;
62990;SDS011;49084;48.204;16.202;2022-12-20T00:05:37;62.45;;;21.05;;
62990;SDS011;49084;48.204;16.202;2022-12-20T00:08:04;71.60;;;24.58;;
62990;SDS011;49084;48.204;16.202;2022-12-20T00:10:34;59.50;;;22.40;;
62990;SDS011;49084;48.204;16.202;2022-12-20T00:13:01;67.93;;;21.20;;
62990;SDS011;49084;48.204;16.202;2022-12-20T00:15:26;71.78;;;22.63;;
62990;SDS011;49084;48.204;16.202;2022-12-20T00:17:52;61.38;;;21.38;;
62990;SDS011;49084;48.204;16.202;2022-12-20T00:20:17;65.25;;;21.92;;
62990;SDS011;49084;48.204;16.202;2022-12-20T00:22:43;59.08;;;22.30;;
62990;SDS011;49084;48.204;16.202;2022-12-20T00:25:09;61.33;;;21.40;;
62990;SDS011;49084;48.204;16.202;2022-12-20T00:27:35;67.20;;;22.40;;
62990;SDS011;49084;48.204;16.202;2022-12-20T00:30:01;58.70;;;21.33;;
62990;SDS011;49084;48.204;16.202;2022-12-20T00:32:27;72.18;;;23.08;;
62990;SDS011;49084;48.204;16.202;2022-12-20T00:34:52;63.75;;;21.70;;
62990;SDS011;49084;48.204;16.202;2022-12-20T00:37:18;62.58;;;19.45;;
62990;SDS011;49084;48.204;16.202;2022-12-20T00:39:44;66.47;;;21.33;;
62990;SDS011;49084;48.204;16.202;2022-12-20T00:42:09;64.00;;;21.63;;
62990;SDS011;49084;48.204;16.202;2022-12-20T00:44:35;72.78;;;23.13;;
62990;SDS011;49084;48.204;16.202;2022-12-20T00:47:00;64.05;;;23.08;;
62990;SDS011;49084;48.204;16.202;2022-12-20T00:49:26;59.22;;;20.23;;
62990;SDS011;49084;48.204;16.202;2022-12-20T00:51:52;61.53;;;22.15;;
62990;SDS011;49084;48.204;16.202;2022-12-20T00:54:17;61.70;;;21.40;;
62990;SDS011;49084;48.204;16.202;2022-12-20T00:56:43;64.55;;;22.23;;
62990;SDS011;49084;48.204;16.202;2022-12-20T00:59:09;62.28;;;21.98;;
62990;SDS011;49084;48.204;16.202;2022-12-20T01:01:35;69.35;;;23.35;;
62990;SDS011;49084;48.204;16.202;2022-12-20T01:04:01;69.88;;;22.60;;
62990;SDS011;49084;48.204;16.202;2022-12-20T01:06:27;66.00;;;22.38;;
62990;SDS011;49084;48.204;16.202;2022-12-20T01:08:54;64.90;;;22.33;;
62990;SDS011;49084;48.204;16.202;2022-12-20T01:11:21;66.65;;;22.83;;
62990;SDS011;49084;48.204;16.202;2022-12-20T01:13:50;70.75;;;23.00;;
62990;SDS011;49084;48.204;16.202;2022-12-20T01:18:43;65.68;;;22.08;;
62990;SDS011;49084;48.204;16.202;2022-12-20T01:21:10;67.68;;;22.77;;
62990;SDS011;49084;48.204;16.202;2022-12-20T01:23:37;70.53;;;21.92;;
62990;SDS011;49084;48.204;16.202;2022-12-20T01:26:04;63.03;;;21.70;;
62990;SDS011;49084;48.204;16.202;2022-12-20T01:28:33;70.80;;;22.65;;
62990;SDS011;49084;48.204;16.202;2022-12-20T01:31:00;62.40;;;21.38;;
62990;SDS011;49084;48.204;16.202;2022-12-20T01:33:25;62.42;;;21.73;;
62990;SDS011;49084;48.204;16.202;2022-12-20T01:35:58;69.63;;;22.75;;
62990;SDS011;49084;48.204;16.202;2022-12-20T01:38:26;71.28;;;23.13;;
62990;SDS011;49084;48.204;16.202;2022-12-20T01:40:53;63.65;;;22.40;;
62990;SDS011;49084;48.204;16.202;2022-12-20T01:43:20;68.15;;;23.25;;
62990;SDS011;49084;48.204;16.202;2022-12-20T01:45:46;67.93;;;22.23;;
62990;SDS011;49084;48.204;16.202;2022-12-20T01:48:13;63.72;;;23.42;;
62990;SDS011;49084;48.204;16.202;2022-12-20T01:50:42;68.35;;;21.40;;
62990;SDS011;49084;48.204;16.202;2022-12-20T01:53:09;70.95;;;21.23;;
62990;SDS011;49084;48.204;16.202;2022-12-20T01:55:35;67.55;;;20.85;;
62990;SDS011;49084;48.204;16.202;2022-12-20T01:58:05;70.45;;;22.13;;
62990;SDS011;49084;48.204;16.202;2022-12-20T02:00:36;79.15;;;24.27;;
62990;SDS011;49084;48.204;16.202;2022-12-20T02:03:05;77.10;;;24.10;;
62990;SDS011;49084;48.204;16.202;2022-12-20T02:05:37;61.90;;;21.38;;
62990;SDS011;49084;48.204;16.202;2022-12-20T02:08:09;68.60;;;23.23;;
62990;SDS011;49084;48.204;16.202;2022-12-20T02:16:08;75.47;;;24.30;;
62990;SDS011;49084;48.204;16.202;2022-12-20T02:18:49;75.10;;;24.35;;
62990;SDS011;49084;48.204;16.202;2022-12-20T02:21:33;77.50;;;25.13;;
62990;SDS011;49084;48.204;16.202;2022-12-20T02:32:43;70.18;;;23.70;;
62990;SDS011;49084;48.204;16.202;2022-12-20T02:35:33;72.30;;;22.83;;
62990;SDS011;49084;48.204;16.202;2022-12-20T02:38:03;68.50;;;22.83;;
62990;SDS011;49084;48.204;16.202;2022-12-20T02:40:48;72.30;;;22.52;;
62990;SDS011;49084;48.204;16.202;2022-12-20T02:43:17;63.28;;;22.00;;
62990;SDS011;49084;48.204;16.202;2022-12-20T02:46:04;68.53;;;22.38;;
62990;SDS011;49084;48.204;16.202;2022-12-20T02:48:30;66.53;;;23.35;;
62990;SDS011;49084;48.204;16.202;2022-12-20T02:50:59;62.40;;;21.98;;
62990;SDS011;49084;48.204;16.202;2022-12-20T02:53:27;59.00;;;22.13;;
62990;SDS011;49084;48.204;16.202;2022-12-20T03:01:33;64.05;;;22.40;;
62990;SDS011;49084;48.204;16.202;2022-12-20T03:04:03;73.60;;;22.85;;
62990;SDS011;49084;48.204;16.202;2022-12-20T03:06:29;63.53;;;20.38;;
62990;SDS011;49084;48.204;16.202;2022-12-20T03:08:55;66.40;;;23.20;;
62990;SDS011;49084;48.204;16.202;2022-12-20T03:11:21;65.38;;;23.88;;
62990;SDS011;49084;48.204;16.202;2022-12-20T03:13:47;72.93;;;21.80;;
62990;SDS011;49084;48.204;16.202;2022-12-20T03:16:13;69.97;;;23.73;;
62990;SDS011;49084;48.204;16.202;2022-12-20T03:18:39;64.53;;;24.10;;
62990;SDS011;49084;48.204;16.202;2022-12-20T03:21:05;70.43;;;22.45;;
62990;SDS011;49084;48.204;16.202;2022-12-20T03:23:30;62.35;;;21.15;;
62990;SDS011;49084;48.204;16.202;2022-12-20T03:25:56;57.38;;;21.27;;
62990;SDS011;49084;48.204;16.202;2022-12-20T03:28:22;68.30;;;20.85;;
62990;SDS011;49084;48.204;16.202;2022-12-20T03:30:47;63.65;;;20.85;;
62990;SDS011;49084;48.204;16.202;2022-12-20T03:33:14;57.90;;;21.00;;
62990;SDS011;49084;48.204;16.202;2022-12-20T03:35:39;67.38;;;22.92;;
62990;SDS011;49084;48.204;16.202;2022-12-20T03:38:05;58.30;;;19.45;;
62990;SDS011;49084;48.204;16.202;2022-12-20T03:40:31;61.17;;;21.50;;
62990;SDS011;49084;48.204;16.202;2022-12-20T03:42:56;65.65;;;22.85;;
62990;SDS011;49084;48.204;16.202;2022-12-20T03:45:22;65.47;;;21.08;;
62990;SDS011;49084;48.204;16.202;2022-12-20T03:47:47;67.28;;;22.10;;
62990;SDS011;49084;48.204;16.202;2022-12-20T03:50:13;69.32;;;21.17;;
62990;SDS011;49084;48.204;16.202;2022-12-20T03:52:39;63.78;;;22.88;;
62990;SDS011;49084;48.204;16.202;2022-12-20T03:55:05;63.20;;;20.70;;
62990;SDS011;49084;48.204;16.202;2022-12-20T03:57:31;70.40;;;22.98;;
62990;SDS011;49084;48.204;16.202;2022-12-20T03:59:56;59.58;;;21.92;;
62990;SDS011;49084;48.204;16.202;2022-12-20T04:02:22;61.67;;;22.90;;
62990;SDS011;49084;48.204;16.202;2022-12-20T04:04:48;67.20;;;22.45;;
62990;SDS011;49084;48.204;16.202;2022-12-20T04:07:14;65.00;;;23.40;;
62990;SDS011;49084;48.204;16.202;2022-12-20T04:09:40;70.07;;;22.23;;
62990;SDS011;49084;48.204;16.202;2022-12-20T04:12:06;62.67;;;22.33;;
62990;SDS011;49084;48.204;16.202;2022-12-20T04:14:32;68.80;;;22.30;;
62990;SDS011;49084;48.204;16.202;2022-12-20T04:16:57;71.60;;;25.20;;
62990;SDS011;49084;48.204;16.202;2022-12-20T04:19:24;63.50;;;22.00;;
62990;SDS011;49084;48.204;16.202;2022-12-20T04:21:50;79.93;;;25.75;;
62990;SDS011;49084;48.204;16.202;2022-12-20T04:24:15;62.20;;;21.00;;
62990;SDS011;49084;48.204;16.202;2022-12-20T04:26:41;66.53;;;22.83;;
62990;SDS011;49084;48.204;16.202;2022-12-20T04:29:07;72.85;;;21.73;;
62990;SDS011;49084;48.204;16.202;2022-12-20T04:31:32;69.70;;;23.00;;
62990;SDS011;49084;48.204;16.202;2022-12-20T04:33:58;65.45;;;22.65;;
62990;SDS011;49084;48.204;16.202;2022-12-20T04:36:24;68.20;;;23.02;;
62990;SDS011;49084;48.204;16.202;2022-12-20T04:38:49;60.65;;;23.60;;
62990;SDS011;49084;48.204;16.202;2022-12-20T04:41:15;73.07;;;23.52;;
62990;SDS011;49084;48.204;16.202;2022-12-20T04:43:50;70.95;;;22.50;;
62990;SDS011;49084;48.204;16.202;2022-12-20T04:46:21;61.85;;;22.25;;
62990;SDS011;49084;48.204;16.202;2022-12-20T04:48:47;69.57;;;22.70;;
62990;SDS011;49084;48.204;16.202;2022-12-20T04:51:13;64.05;;;22.38;;
62990;SDS011;49084;48.204;16.202;2022-12-20T04:53:40;68.82;;;23.67;;
62990;SDS011;49084;48.204;16.202;2022-12-20T04:56:12;76.13;;;23.60;;
62990;SDS011;49084;48.204;16.202;2022-12-20T04:58:42;66.32;;;24.65;;
62990;SDS011;49084;48.204;16.202;2022-12-20T05:01:08;62.63;;;23.08;;
62990;SDS011;49084;48.204;16.202;2022-12-20T05:03:34;64.03;;;22.52;;
62990;SDS011;49084;48.204;16.202;2022-12-20T05:06:00;62.00;;;23.55;;
62990;SDS011;49084;48.204;16.202;2022-12-20T05:08:25;76.38;;;24.15;;
62990;SDS011;49084;48.204;16.202;2022-12-20T05:10:51;70.18;;;23.52;;
62990;SDS011;49084;48.204;16.202;2022-12-20T05:13:17;68.70;;;24.58;;
62990;SDS011;49084;48.204;16.202;2022-12-20T05:15:42;68.55;;;23.25;;
62990;SDS011;49084;48.204;16.202;2022-12-20T05:18:08;62.35;;;23.35;;
62990;SDS011;49084;48.204;16.202;2022-12-20T05:20:34;75.82;;;24.98;;
62990;SDS011;49084;48.204;16.202;2022-12-20T05:23:00;72.32;;;23.23;;
62990;SDS011;49084;48.204;16.202;2022-12-20T05:25:46;63.88;;;22.10;;
62990;SDS011;49084;48.204;16.202;2022-12-20T05:28:32;63.50;;;23.08;;
62990;SDS011;49084;48.204;16.202;2022-12-20T05:30:58;61.80;;;21.85;;
62990;SDS011;49084;48.204;16.202;2022-12-20T05:33:25;68.05;;;22.88;;
62990;SDS011;49084;48.204;16.202;2022-12-20T05:35:51;64.13;;;22.83;;
62990;SDS011;49084;48.204;16.202;2022-12-20T05:38:16;73.78;;;22.77;;
62990;SDS011;49084;48.204;16.202;2022-12-20T05:40:42;62.53;;;22.67;;
62990;SDS011;49084;48.204;16.202;2022-12-20T05:43:08;62.28;;;21.15;;
62990;SDS011;49084;48.204;16.202;2022-12-20T05:45:34;70.15;;;23.10;;
62990;SDS011;49084;48.204;16.202;2022-12-20T05:47:59;63.75;;;22.08;;
62990;SDS011;49084;48.204;16.202;2022-12-20T05:50:26;76.47;;;24.73;;
62990;SDS011;49084;48.204;16.202;2022-12-20T05:52:51;71.72;;;23.83;;
62990;SDS011;49084;48.204;16.202;2022-12-20T05:55:17;66.75;;;23.25;;
62990;SDS011;49084;48.204;16.202;2022-12-20T05:57:42;71.35;;;25.05;;
62990;SDS011;49084;48.204;16.202;2022-12-20T06:00:08;69.50;;;22.95;;
62990;SDS011;49084;48.204;16.202;2022-12-20T06:02:35;82.75;;;28.20;;
62990;SDS011;49084;48.204;16.202;2022-12-20T06:05:01;69.90;;;24.13;;
62990;SDS011;49084;48.204;16.202;2022-12-20T06:07:27;69.47;;;23.52;;
62990;SDS011;49084;48.204;16.202;2022-12-20T06:12:21;74.32;;;26.52;;
62990;SDS011;49084;48.204;16.202;2022-12-20T06:14:47;69.32;;;24.20;;
62990;SDS011;49084;48.204;16.202;2022-12-20T06:17:13;68.82;;;23.67;;
62990;SDS011;49084;48.204;16.202;2022-12-20T06:19:38;76.53;;;26.08;;
62990;SDS011;49084;48.204;16.202;2022-12-20T06:22:05;82.25;;;26.55;;
62990;SDS011;49084;48.204;16.202;2022-12-20T06:24:32;76.55;;;24.55;;
62990;SDS011;49084;48.204;16.202;2022-12-20T06:26:59;74.05;;;25.63;;
62990;SDS011;49084;48.204;16.202;2022-12-20T06:29:24;82.75;;;25.75;;
62990;SDS011;49084;48.204;16.202;2022-12-20T06:31:50;82.00;;;26.40;;
62990;SDS011;49084;48.204;16.202;2022-12-20T06:34:16;78.47;;;26.60;;
62990;SDS011;49084;48.204;16.202;2022-12-20T06:36:42;75.60;;;26.38;;
62990;SDS011;49084;48.204;16.202;2022-12-20T06:39:08;86.50;;;27.02;;
62990;SDS011;49084;48.204;16.202;2022-12-20T06:41:35;89.38;;;28.65;;
62990;SDS011;49084;48.204;16.202;2022-12-20T06:44:01;80.90;;;26.60;;
62990;SDS011;49084;48.204;16.202;2022-12-20T06:46:27;84.40;;;25.13;;
62990;SDS011;49084;48.204;16.202;2022-12-20T06:48:54;94.10;;;28.20;;
62990;SDS011;49084;48.204;16.202;2022-12-20T06:51:20;86.88;;;27.80;;
62990;SDS011;49084;48.204;16.202;2022-12-20T06:53:46;94.35;;;29.25;;
62990;SDS011;49084;48.204;16.202;2022-12-20T06:56:11;86.28;;;27.63;;
62990;SDS011;49084;48.204;16.202;2022-12-20T06:58:37;80.35;;;27.17;;
62990;SDS011;49084;48.204;16.202;2022-12-20T07:01:03;82.63;;;26.40;;
62990;SDS011;49084;48.204;16.202;2022-12-20T07:03:29;90.97;;;28.17;;
62990;SDS011;49084;48.204;16.202;2022-12-20T07:05:54;89.95;;;27.30;;
62990;SDS011;49084;48.204;16.202;2022-12-20T07:08:21;81.45;;;26.48;;
62990;SDS011;49084;48.204;16.202;2022-12-20T07:10:47;99.82;;;28.35;;
62990;SDS011;49084;48.204;16.202;2022-12-20T07:13:13;83.65;;;26.27;;
62990;SDS011;49084;48.204;16.202;2022-12-20T07:15:39;76.85;;;24.88;;
62990;SDS011;49084;48.204;16.202;2022-12-20T07:18:05;85.18;;;27.13;;
62990;SDS011;49084;48.204;16.202;2022-12-20T07:20:31;81.07;;;27.70;;
62990;SDS011;49084;48.204;16.202;2022-12-20T07:22:57;89.35;;;26.85;;
62990;SDS011;49084;48.204;16.202;2022-12-20T07:25:22;87.10;;;26.83;;
62990;SDS011;49084;48.204;16.202;2022-12-20T07:27:49;87.90;;;27.95;;
62990;SDS011;49084;48.204;16.202;2022-12-20T07:30:16;92.90;;;26.88;;
62990;SDS011;49084;48.204;16.202;2022-12-20T07:32:43;86.28;;;27.00;;
62990;SDS011;49084;48.204;16.202;2022-12-20T07:35:09;91.20;;;27.92;;
62990;SDS011;49084;48.204;16.202;2022-12-20T07:37:36;101.35;;;30.02;;
62990;SDS011;49084;48.204;16.202;2022-12-20T07:40:02;91.22;;;26.17;;
62990;SDS011;49084;48.204;16.202;2022-12-20T07:42:29;96.47;;;29.20;;
62990;SDS011;49084;48.204;16.202;2022-12-20T07:44:55;101.43;;;28.95;;
62990;SDS011;49084;48.204;16.202;2022-12-20T07:47:20;97.20;;;29.98;;
62990;SDS011;49084;48.204;16.202;2022-12-20T07:49:46;92.10;;;28.58;;
62990;SDS011;49084;48.204;16.202;2022-12-20T07:52:13;94.22;;;28.42;;
62990;SDS011;49084;48.204;16.202;2022-12-20T07:54:42;95.28;;;28.05;;
62990;SDS011;49084;48.204;16.202;2022-12-20T07:57:15;89.03;;;26.27;;
62990;SDS011;49084;48.204;16.202;2022-12-20T07:59:50;88.18;;;29.08;;
62990;SDS011;49084;48.204;16.202;2022-12-20T08:02:26;92.68;;;26.38;;
62990;SDS011;49084;48.204;16.202;2022-12-20T08:04:59;85.18;;;27.38;;
62990;SDS011;49084;48.204;16.202;2022-12-20T08:07:26;95.63;;;29.45;;
62990;SDS011;49084;48.204;16.202;2022-12-20T08:09:53;103.43;;;30.65;;
62990;SDS011;49084;48.204;16.202;2022-12-20T08:12:19;104.90;;;29.33;;
62990;SDS011;49084;48.204;16.202;2022-12-20T08:14:46;92.25;;;28.92;;
62990;SDS011;49084;48.204;16.202;2022-12-20T08:17:12;100.45;;;28.25;;
62990;SDS011;49084;48.204;16.202;2022-12-20T08:19:38;88.50;;;27.52;;
62990;SDS011;49084;48.204;16.202;2022-12-20T08:22:04;83.65;;;26.83;;
62990;SDS011;49084;48.204;16.202;2022-12-20T08:24:30;85.45;;;26.35;;
62990;SDS011;49084;48.204;16.202;2022-12-20T08:26:58;93.70;;;27.70;;
62990;SDS011;49084;48.204;16.202;2022-12-20T08:29:24;84.40;;;27.08;;
62990;SDS011;49084;48.204;16.202;2022-12-20T08:31:50;98.07;;;28.45;;
62990;SDS011;49084;48.204;16.202;2022-12-20T08:34:16;94.97;;;28.70;;
62990;SDS011;49084;48.204;16.202;2022-12-20T08:36:42;104.18;;;31.95;;
62990;SDS011;49084;48.204;16.202;2022-12-20T08:39:08;87.13;;;28.13;;
62990;SDS011;49084;48.204;16.202;2022-12-20T08:41:35;96.75;;;28.73;;
62990;SDS011;49084;48.204;16.202;2022-12-20T08:44:01;80.90;;;27.98;;
62990;SDS011;49084;48.204;16.202;2022-12-20T08:46:28;92.93;;;30.85;;
62990;SDS011;49084;48.204;16.202;2022-12-20T08:48:53;92.90;;;26.35;;
62990;SDS011;49084;48.204;16.202;2022-12-20T08:51:19;86.35;;;26.95;;
62990;SDS011;49084;48.204;16.202;2022-12-20T08:53:44;84.40;;;25.73;;
62990;SDS011;49084;48.204;16.202;2022-12-20T08:56:11;82.30;;;26.60;;
62990;SDS011;49084;48.204;16.202;2022-12-20T08:58:41;86.43;;;27.50;;
62990;SDS011;49084;48.204;16.202;2022-12-20T09:01:17;78.15;;;23.20;;
62990;SDS011;49084;48.204;16.202;2022-12-20T09:03:45;86.90;;;27.60;;
62990;SDS011;49084;48.204;16.202;2022-12-20T09:06:14;80.75;;;26.33;;
62990;SDS011;49084;48.204;16.202;2022-12-20T09:08:41;84.82;;;26.42;;
62990;SDS011;49084;48.204;16.202;2022-12-20T09:11:08;75.63;;;24.08;;
62990;SDS011;49084;48.204;16.202;2022-12-20T09:13:39;83.95;;;28.13;;
62990;SDS011;49084;48.204;16.202;2022-12-20T09:16:06;90.28;;;27.10;;
62990;SDS011;49084;48.204;16.202;2022-12-20T09:18:33;84.53;;;24.98;;
62990;SDS011;49084;48.204;16.202;2022-12-20T09:21:02;97.07;;;27.98;;
62990;SDS011;49084;48.204;16.202;2022-12-20T09:23:29;92.40;;;25.98;;
62990;SDS011;49084;48.204;16.202;2022-12-20T09:26:03;78.45;;;25.05;;
62990;SDS011;49084;48.204;16.202;2022-12-20T09:28:31;89.70;;;26.20;;
62990;SDS011;49084;48.204;16.202;2022-12-20T09:30:58;81.35;;;24.70;;
62990;SDS011;49084;48.204;16.202;2022-12-20T09:33:25;78.70;;;24.38;;
62990;SDS011;49084;48.204;16.202;2022-12-20T09:35:52;80.05;;;24.55;;
62990;SDS011;49084;48.204;16.202;2022-12-20T09:38:18;82.32;;;27.05;;
62990;SDS011;49084;48.204;16.202;2022-12-20T09:40:48;81.97;;;26.38;;
62990;SDS011;49084;48.204;16.202;2022-12-20T09:43:16;85.63;;;24.65;;
62990;SDS011;49084;48.204;16.202;2022-12-20T09:45:43;79.72;;;23.83;;
62990;SDS011;49084;48.204;16.202;2022-12-20T09:48:15;74.85;;;23.33;;
62990;SDS011;49084;48.204;16.202;2022-12-20T10:01:23;74.05;;;24.80;;
62990;SDS011;49084;48.204;16.202;2022-12-20T10:03:50;77.72;;;26.65;;
62990;SDS011;49084;48.204;16.202;2022-12-20T10:17:13;75.82;;;22.42;;
62990;SDS011;49084;48.204;16.202;2022-12-20T10:27:42;77.45;;;23.70;;
62990;SDS011;49084;48.204;16.202;2022-12-20T10:30:12;75.03;;;24.58;;
62990;SDS011;49084;48.204;16.202;2022-12-20T10:32:46;77.18;;;23.25;;
62990;SDS011;49084;48.204;16.202;2022-12-20T10:35:33;64.03;;;21.52;;
62990;SDS011;49084;48.204;16.202;2022-12-20T10:38:03;69.35;;;21.08;;
62990;SDS011;49084;48.204;16.202;2022-12-20T10:40:43;66.82;;;22.52;;
62990;SDS011;49084;48.204;16.202;2022-12-20T10:43:35;80.75;;;25.00;;
62990;SDS011;49084;48.204;16.202;2022-12-20T10:46:07;65.88;;;21.38;;
62990;SDS011;49084;48.204;16.202;2022-12-20T10:48:37;77.78;;;23.45;;
62990;SDS011;49084;48.204;16.202;2022-12-20T10:53:37;68.18;;;23.63;;
62990;SDS011;49084;48.204;16.202;2022-12-20T10:56:17;76.20;;;24.20;;
62990;SDS011;49084;48.204;16.202;2022-12-20T10:58:50;67.75;;;22.95;;
62990;SDS011;49084;48.204;16.202;2022-12-20T11:01:31;70.40;;;22.90;;
62990;SDS011;49084;48.204;16.202;2022-12-20T11:04:00;71.25;;;22.60;;
62990;SDS011;49084;48.204;16.202;2022-12-20T11:14:44;71.97;;;20.55;;
62990;SDS011;49084;48.204;16.202;2022-12-20T11:39:39;75.72;;;21.83;;
62990;SDS011;49084;48.204;16.202;2022-12-20T11:51:03;60.78;;;20.58;;
62990;SDS011;49084;48.204;16.202;2022-12-20T11:55:58;61.72;;;21.08;;
62990;SDS011;49084;48.204;16.202;2022-12-20T11:58:31;64.85;;;20.20;;
62990;SDS011;49084;48.204;16.202;2022-12-20T12:01:13;70.80;;;20.15;;
62990;SDS011;49084;48.204;16.202;2022-12-20T12:03:52;65.43;;;21.13;;
62990;SDS011;49084;48.204;16.202;2022-12-20T12:06:29;67.22;;;20.85;;
62990;SDS011;49084;48.204;16.202;2022-12-20T12:12:04;72.53;;;20.92;;
62990;SDS011;49084;48.204;16.202;2022-12-20T12:14:47;64.75;;;26.42;;
62990;SDS011;49084;48.204;16.202;2022-12-20T12:20:17;62.60;;;21.38;;
62990;SDS011;49084;48.204;16.202;2022-12-20T12:22:44;65.93;;;21.02;;
62990;SDS011;49084;48.204;16.202;2022-12-20T12:25:14;59.03;;;18.77;;
62990;SDS011;49084;48.204;16.202;2022-12-20T12:30:12;58.08;;;19.33;;
62990;SDS011;49084;48.204;16.202;2022-12-20T12:32:40;55.42;;;19.13;;
62990;SDS011;49084;48.204;16.202;2022-12-20T12:35:24;57.35;;;19.23;;
62990;SDS011;49084;48.204;16.202;2022-12-20T12:43:48;59.08;;;20.80;;
62990;SDS011;49084;48.204;16.202;2022-12-20T12:46:27;58.88;;;18.52;;
62990;SDS011;49084;48.204;16.202;2022-12-20T12:51:36;58.83;;;21.27;;
62990;SDS011;49084;48.204;16.202;2022-12-20T12:56:38;58.90;;;19.60;;
62990;SDS011;49084;48.204;16.202;2022-12-20T13:04:56;62.33;;;19.30;;
62990;SDS011;49084;48.204;16.202;2022-12-20T13:15:02;57.35;;;18.67;;
62990;SDS011;49084;48.204;16.202;2022-12-20T13:17:49;57.45;;;18.92;;
62990;SDS011;49084;48.204;16.202;2022-12-20T13:25:38;59.65;;;20.17;;
62990;SDS011;49084;48.204;16.202;2022-12-20T13:28:54;68.05;;;22.60;;
62990;SDS011;49084;48.204;16.202;2022-12-20T13:44:26;55.53;;;19.27;;
62990;SDS011;49084;48.204;16.202;2022-12-20T13:49:49;62.58;;;21.38;;
62990;SDS011;49084;48.204;16.202;2022-12-20T13:54:47;63.03;;;20.40;;
62990;SDS011;49084;48.204;16.202;2022-12-20T13:57:17;73.00;;;21.65;;
62990;SDS011;49084;48.204;16.202;2022-12-20T14:00:13;71.55;;;22.75;;
62990;SDS011;49084;48.204;16.202;2022-12-20T14:02:40;65.03;;;22.42;;
62990;SDS011;49084;48.204;16.202;2022-12-20T14:08:04;68.93;;;21.48;;
62990;SDS011;49084;48.204;16.202;2022-12-20T14:10:37;66.13;;;22.60;;
62990;SDS011;49084;48.204;16.202;2022-12-20T14:13:13;67.43;;;22.48;;
62990;SDS011;49084;48.204;16.202;2022-12-20T14:15:49;74.85;;;27.35;;
62990;SDS011;49084;48.204;16.202;2022-12-20T14:18:22;66.90;;;23.60;;
62990;SDS011;49084;48.204;16.202;2022-12-20T14:20:50;70.68;;;22.00;;
62990;SDS011;49084;48.204;16.202;2022-12-20T14:23:35;69.60;;;24.33;;
62990;SDS011;49084;48.204;16.202;2022-12-20T14:26:05;72.35;;;27.10;;
62990;SDS011;49084;48.204;16.202;2022-12-20T14:28:35;71.57;;;23.38;;
62990;SDS011;49084;48.204;16.202;2022-12-20T14:31:28;69.00;;;24.08;;
62990;SDS011;49084;48.204;16.202;2022-12-20T14:34:01;74.72;;;23.17;;
62990;SDS011;49084;48.204;16.202;2022-12-20T14:36:29;70.43;;;22.63;;
62990;SDS011;49084;48.204;16.202;2022-12-20T14:38:55;63.33;;;20.07;;
62990;SDS011;49084;48.204;16.202;2022-12-20T14:46:32;66.22;;;21.58;;
62990;SDS011;49084;48.204;16.202;2022-12-20T14:51:37;72.97;;;21.90;;
62990;SDS011;49084;48.204;16.202;2022-12-20T14:54:04;66.00;;;20.73;;
62990;SDS011;49084;48.204;16.202;2022-12-20T14:56:30;55.78;;;20.55;;
62990;SDS011;49084;48.204;16.202;2022-12-20T14:59:04;57.85;;;20.65;;
62990;SDS011;49084;48.204;16.202;2022-12-20T15:01:37;57.60;;;19.25;;
62990;SDS011;49084;48.204;16.202;2022-12-20T15:04:18;59.10;;;19.73;;
62990;SDS011;49084;48.204;16.202;2022-12-20T15:06:49;61.45;;;21.20;;
62990;SDS011;49084;48.204;16.202;2022-12-20T15:09:18;48.28;;;17.67;;
62990;SDS011;49084;48.204;16.202;2022-12-20T15:11:44;57.25;;;18.58;;
62990;SDS011;49084;48.204;16.202;2022-12-20T15:14:21;63.03;;;26.38;;
62990;SDS011;49084;48.204;16.202;2022-12-20T15:17:00;55.17;;;19.67;;
62990;SDS011;49084;48.204;16.202;2022-12-20T15:19:37;60.20;;;19.52;;
62990;SDS011;49084;48.204;16.202;2022-12-20T15:22:03;58.55;;;18.45;;
62990;SDS011;49084;48.204;16.202;2022-12-20T15:24:28;57.95;;;22.73;;
62990;SDS011;49084;48.204;16.202;2022-12-20T15:26:54;54.03;;;17.45;;
62990;SDS011;49084;48.204;16.202;2022-12-20T15:29:21;58.25;;;19.25;;
62990;SDS011;49084;48.204;16.202;2022-12-20T15:31:48;47.13;;;18.50;;
62990;SDS011;49084;48.204;16.202;2022-12-20T15:36:55;62.83;;;21.48;;
62990;SDS011;49084;48.204;16.202;2022-12-20T15:39:24;56.78;;;18.88;;
62990;SDS011;49084;48.204;16.202;2022-12-20T15:41:50;55.42;;;20.20;;
62990;SDS011;49084;48.204;16.202;2022-12-20T15:44:17;52.13;;;19.48;;
62990;SDS011;49084;48.204;16.202;2022-12-20T15:46:45;48.47;;;18.33;;
62990;SDS011;49084;48.204;16.202;2022-12-20T15:49:19;55.47;;;19.70;;
62990;SDS011;49084;48.204;16.202;2022-12-20T15:51:46;58.55;;;19.63;;
62990;SDS011;49084;48.204;16.202;2022-12-20T15:54:35;58.65;;;18.65;;
62990;SDS011;49084;48.204;16.202;2022-12-20T15:57:04;50.78;;;19.42;;
62990;SDS011;49084;48.204;16.202;2022-12-20T15:59:34;52.38;;;18.92;;
62990;SDS011;49084;48.204;16.202;2022-12-20T16:02:00;61.38;;;19.98;;
62990;SDS011;49084;48.204;16.202;2022-12-20T16:04:26;59.10;;;19.85;;
62990;SDS011;49084;48.204;16.202;2022-12-20T16:06:55;53.88;;;18.65;;
62990;SDS011;49084;48.204;16.202;2022-12-20T16:09:20;51.92;;;18.52;;
62990;SDS011;49084;48.204;16.202;2022-12-20T16:11:49;59.15;;;21.13;;
62990;SDS011;49084;48.204;16.202;2022-12-20T16:14:16;65.70;;;20.58;;
62990;SDS011;49084;48.204;16.202;2022-12-20T16:16:46;63.83;;;20.73;;
62990;SDS011;49084;48.204;16.202;2022-12-20T16:19:14;57.38;;;19.83;;
62990;SDS011;49084;48.204;16.202;2022-12-20T16:21:41;68.10;;;21.33;;
62990;SDS011;49084;48.204;16.202;2022-12-20T16:24:10;60.80;;;21.52;;
62990;SDS011;49084;48.204;16.202;2022-12-20T16:26:38;62.17;;;22.00;;
62990;SDS011;49084;48.204;16.202;2022-12-20T16:29:03;67.80;;;22.75;;
62990;SDS011;49084;48.204;16.202;2022-12-20T16:31:30;57.17;;;20.55;;
62990;SDS011;49084;48.204;16.202;2022-12-20T16:33:58;62.17;;;19.70;;
62990;SDS011;49084;48.204;16.202;2022-12-20T16:36:25;58.00;;;20.15;;
62990;SDS011;49084;48.204;16.202;2022-12-20T16:38:51;57.30;;;20.73;;
62990;SDS011;49084;48.204;16.202;2022-12-20T16:41:19;58.30;;;19.50;;
62990;SDS011;49084;48.204;16.202;2022-12-20T16:43:49;48.78;;;19.48;;
62990;SDS011;49084;48.204;16.202;2022-12-20T16:46:16;68.38;;;22.52;;
62990;SDS011;49084;48.204;16.202;2022-12-20T16:48:43;63.28;;;22.17;;
62990;SDS011;49084;48.204;16.202;2022-12-20T16:51:26;60.92;;;21.40;;
62990;SDS011;49084;48.204;16.202;2022-12-20T16:53:54;62.20;;;19.98;;
62990;SDS011;49084;48.204;16.202;2022-12-20T16:56:21;60.75;;;20.00;;
62990;SDS011;49084;48.204;16.202;2022-12-20T16:58:47;62.58;;;20.88;;
62990;SDS011;49084;48.204;16.202;2022-12-20T17:01:21;65.50;;;23.52;;
62990;SDS011;49084;48.204;16.202;2022-12-20T17:03:50;56.83;;;20.00;;
62990;SDS011;49084;48.204;16.202;2022-12-20T17:06:16;62.70;;;20.65;;